Wittmann, Arizona
Current Conditions -  °F | °C
As of 7:58 PM on Wednesday 22 Oct 2014 (Local Time) from KLUF Reporting Station
Clear Clear  
Wind Chill: 77°   Ceiling: Unl
Heat Index: 78°   Visibility: 10mi
Dew Point: 53°   Wind: 6mph
Humidity: 43%   Direction: 290°WNW
Pressure: 29.92"   Gusts: NA
Location:  33.78°N, 112.53°W
Report Text: KLUF 230258Z AUTO 29005KT 10SM CLR 25/12 A2992 RMK AO2 SLP123 T02500117 52012 $
Loading
Personal Weather Stations






























Interactive Weather Map
Tropical Storm Tracking
New forecast layout! Learn more

10-Day Weather Forecast

Advertisements
Track Severe Weather on mobile